Time;durP1;ratioP1;P1;durP2;ratioP2;P2;SDS_P1;SDS_P2;PMS_P1;PMS_P2;Temp;Humidity;BMP_temperature;BMP_pressure;BME280_temperature;BME280_humidity;BME280_pressure;Samples;Min_cycle;Max_cycle;Signal;HPM_P1;HPM_P2
2022/01/19 00:01:05;;;;;;;0.10;0.10;;;;;;;;;;5087310;28;20660;-68
2022/01/19 00:03:33;;;;;;;0.10;0.10;;;;;;;;;;5090141;28;20643;-69
2022/01/19 00:06:00;;;;;;;0.10;0.10;;;;;;;;;;5093574;28;20612;-69
2022/01/19 00:08:28;;;;;;;0.10;0.10;;;;;;;;;;5087644;28;20671;-68
2022/01/19 00:10:55;;;;;;;0.10;0.10;;;;;;;;;;5091764;28;20620;-68
2022/01/19 00:13:24;;;;;;;0.10;0.10;;;;;;;;;;5085109;28;20972;-68
2022/01/19 00:15:52;;;;;;;0.10;0.10;;;;;;;;;;5085251;28;20724;-68
2022/01/19 00:18:21;;;;;;;0.10;0.10;;;;;;;;;;5088884;28;20652;-68
2022/01/19 00:20:49;;;;;;;0.10;0.10;;;;;;;;;;5089328;28;20610;-69
2022/01/19 00:23:16;;;;;;;0.10;0.10;;;;;;;;;;5086705;28;20660;-67
2022/01/19 00:25:44;;;;;;;0.10;0.10;;;;;;;;;;5085513;28;20608;-66
2022/01/19 00:28:11;;;;;;;0.10;0.10;;;;;;;;;;5088729;28;20643;-68
2022/01/19 00:30:40;;;;;;;0.10;0.10;;;;;;;;;;5087091;28;20630;-67
2022/01/19 00:33:08;;;;;;;0.10;0.10;;;;;;;;;;5087150;28;20615;-68
2022/01/19 00:35:35;;;;;;;0.10;0.10;;;;;;;;;;5086848;28;20628;-68
2022/01/19 00:38:02;;;;;;;0.10;0.10;;;;;;;;;;5087858;28;20635;-68
2022/01/19 00:40:30;;;;;;;0.10;0.10;;;;;;;;;;5085062;28;20653;-67
2022/01/19 00:42:58;;;;;;;0.10;0.10;;;;;;;;;;5086942;28;20656;-68
2022/01/19 00:45:25;;;;;;;0.10;0.10;;;6.90;99.90;;;;;;5088211;28;20615;-68
2022/01/19 00:47:54;;;;;;;0.10;0.10;;;3.50;99.90;;;;;;5081806;28;20651;-67
2022/01/19 00:50:24;;;;;;;0.10;0.10;;;3.50;99.90;;;;;;5087555;28;20620;-68
2022/01/19 00:52:52;;;;;;;0.10;0.10;;;3.50;99.90;;;;;;5086964;28;20612;-68
2022/01/19 00:55:21;;;;;;;0.10;0.10;;;3.40;99.90;;;;;;5080869;28;21172;-67
2022/01/19 00:57:49;;;;;;;0.10;0.10;;;3.50;99.90;;;;;;5085926;28;20798;-68
2022/01/19 01:00:19;;;;;;;0.10;0.10;;;3.40;99.90;;;;;;5087407;28;20734;-67
2022/01/19 01:02:46;;;;;;;0.10;0.10;;;3.40;99.90;;;;;;5088992;28;20650;-67
2022/01/19 01:05:14;;;;;;;0.10;0.10;;;3.40;99.90;;;;;;5091547;28;21237;-67
2022/01/19 01:07:41;;;;;;;0.10;0.10;;;3.40;99.90;;;;;;5089317;28;20718;-67
2022/01/19 01:10:12;;;;;;;0.10;0.10;;;3.40;99.90;;;;;;5090926;28;20634;-68
2022/01/19 01:12:46;;;;;;;0.10;0.10;;;3.40;99.90;;;;;;5086404;28;20623;-67
2022/01/19 01:15:30;;;;;;;0.10;0.10;;;3.40;99.90;;;;;;5091604;28;20611;-67
2022/01/19 01:18:19;;;;;;;0.10;0.10;;;3.30;99.90;;;;;;5092668;28;20646;-68
2022/01/19 01:20:51;;;;;;;0.10;0.10;;;3.30;99.90;;;;;;5085588;28;20747;-68
2022/01/19 01:23:19;;;;;;;0.10;0.10;;;3.20;99.90;;;;;;5092478;28;20752;-67
2022/01/19 01:25:46;;;;;;;0.10;0.10;;;3.20;99.90;;;;;;5081910;28;20612;-68
2022/01/19 01:28:14;;;;;;;0.10;0.10;;;3.10;99.90;;;;;;5082359;28;20676;-67
2022/01/19 01:30:42;;;;;;;0.10;0.10;;;3.10;99.90;;;;;;5086961;28;20612;-67
2022/01/19 01:33:09;;;;;;;0.10;0.10;;;3.00;99.90;;;;;;5085276;28;20637;-67
2022/01/19 01:35:37;;;;;;;0.20;0.20;;;3.00;99.90;;;;;;5085920;28;20632;-67
2022/01/19 01:38:07;;;;;;;0.10;0.10;;;3.00;99.90;;;;;;5083808;28;20658;-67
2022/01/19 01:40:35;;;;;;;0.10;0.10;;;3.00;99.90;;;;;;5083445;28;20681;-68
2022/01/19 01:43:04;;;;;;;0.10;0.10;;;3.00;99.90;;;;;;5083606;28;20716;-68
2022/01/19 01:45:33;;;;;;;0.10;0.10;;;2.90;99.90;;;;;;5085220;28;20684;-67
2022/01/19 01:48:08;;;;;;;0.10;0.10;;;2.90;99.90;;;;;;5080335;28;20655;-67
2022/01/19 01:53:29;;;;;;;0.10;0.10;;;2.80;99.90;;;;;;5087173;28;20722;-67
2022/01/19 01:56:00;;;;;;;0.10;0.10;;;2.80;99.90;;;;;;5089279;28;20631;-67
2022/01/19 01:58:28;;;;;;;0.10;0.10;;;2.70;99.90;;;;;;5080580;28;20648;-67
2022/01/19 02:01:31;;;;;;;0.20;0.20;;;2.70;99.90;;;;;;5082135;28;20780;-67
2022/01/19 02:04:01;;;;;;;0.10;0.10;;;2.70;99.90;;;;;;5087625;28;20754;-68
2022/01/19 02:06:32;;;;;;;0.10;0.10;;;2.60;99.90;;;;;;5087079;28;20681;-67
2022/01/19 02:09:26;;;;;;;0.10;0.10;;;2.60;99.90;;;;;;5088643;28;20666;-67
2022/01/19 02:23:11;;;;;;;0.10;0.10;;;2.50;99.90;;;;;;5089054;28;20666;-68
2022/01/19 02:25:42;;;;;;;0.10;0.10;;;2.50;99.90;;;;;;5083808;28;20673;-68
2022/01/19 02:41:57;;;;;;;0.10;0.10;;;2.30;99.90;;;;;;5082906;28;20616;-67
2022/01/19 02:44:38;;;;;;;0.10;0.10;;;2.20;99.90;;;;;;5084387;28;20644;-67
2022/01/19 02:49:51;;;;;;;0.10;0.10;;;2.20;99.90;;;;;;5084379;28;21230;-66
2022/01/19 02:52:21;;;;;;;0.10;0.10;;;2.20;99.90;;;;;;5086200;28;20604;-67
2022/01/19 02:54:50;;;;;;;0.10;0.10;;;2.10;99.90;;;;;;5083637;28;20647;-68
2022/01/19 02:57:19;;;;;;;0.10;0.10;;;2.10;99.90;;;;;;5084571;28;20616;-68
2022/01/19 03:06:15;;;;;;;0.10;0.10;;;2.10;99.90;;;;;;5085588;28;20636;-67
2022/01/19 03:10:50;;;;;;;0.10;0.10;;;2.00;99.90;;;;;;5088873;28;20612;-67
2022/01/19 03:13:17;;;;;;;0.10;0.10;;;2.00;99.90;;;;;;5085763;28;20616;-67
2022/01/19 03:15:44;;;;;;;0.10;0.10;;;2.00;99.90;;;;;;5087715;28;20620;-67
2022/01/19 03:18:10;;;;;;;0.10;0.10;;;2.00;99.90;;;;;;5089276;28;21109;-68
2022/01/19 03:20:38;;;;;;;0.10;0.10;;;2.00;99.90;;;;;;5088467;28;20705;-67
2022/01/19 03:23:16;;;;;;;0.10;0.10;;;1.90;99.90;;;;;;5092143;28;20643;-67
2022/01/19 03:25:43;;;;;;;0.10;0.10;;;1.90;99.90;;;;;;5086925;28;20607;-69
2022/01/19 03:28:10;;;;;;;0.20;0.20;;;1.90;99.90;;;;;;5088619;28;21237;-67
2022/01/19 03:30:38;;;;;;;0.20;0.20;;;1.80;99.90;;;;;;5089145;28;20631;-68
2022/01/19 03:33:05;;;;;;;0.20;0.20;;;1.80;99.90;;;;;;5086508;28;20608;-67
2022/01/19 03:35:32;;;;;;;0.10;0.10;;;1.80;99.90;;;;;;5088480;28;20635;-68
2022/01/19 03:38:00;;;;;;;0.10;0.10;;;1.80;99.90;;;;;;5087871;28;20663;-68
2022/01/19 03:40:28;;;;;;;0.20;0.20;;;1.80;99.90;;;;;;5088129;28;20697;-68
2022/01/19 03:42:55;;;;;;;0.10;0.10;;;1.80;99.90;;;;;;5090943;28;21208;-67
2022/01/19 03:45:39;;;;;;;0.10;0.10;;;1.80;99.90;;;;;;5088440;28;20628;-68
2022/01/19 03:48:18;;;;;;;0.10;0.10;;;1.80;99.90;;;;;;5087135;28;20674;-68
2022/01/19 03:50:46;;;;;;;0.10;0.10;;;1.80;99.90;;;;;;5086410;28;20612;-67
2022/01/19 03:53:12;;;;;;;0.10;0.10;;;1.70;99.90;;;;;;5087037;28;20615;-67
2022/01/19 03:55:41;;;;;;;0.13;0.13;;;1.70;99.90;;;;;;5087580;28;20620;-68
2022/01/19 03:58:09;;;;;;;0.10;0.10;;;1.70;99.90;;;;;;5083849;28;20655;-67
2022/01/19 04:00:41;;;;;;;0.10;0.10;;;1.70;99.90;;;;;;5088612;28;20635;-67
2022/01/19 04:03:10;;;;;;;0.10;0.10;;;1.70;99.90;;;;;;5088205;28;20672;-68
2022/01/19 04:05:41;;;;;;;0.10;0.10;;;1.70;99.90;;;;;;5092550;28;20689;-67
2022/01/19 04:08:09;;;;;;;0.20;0.20;;;1.60;99.90;;;;;;5087740;28;20658;-68
2022/01/19 04:10:36;;;;;;;0.10;0.10;;;1.60;99.90;;;;;;5091849;28;20619;-67
2022/01/19 04:13:23;;;;;;;0.10;0.10;;;;;;;;;;5090558;28;20620;-68
2022/01/19 04:15:51;;;;;;;0.10;0.10;;;1.50;99.90;;;;;;5086234;28;20623;-67
2022/01/19 04:18:19;;;;;;;0.10;0.10;;;1.50;99.90;;;;;;5087387;28;20665;-67
2022/01/19 04:20:49;;;;;;;0.10;0.10;;;1.50;99.90;;;;;;5092269;28;20694;-67
2022/01/19 04:23:16;;;;;;;0.10;0.10;;;1.50;99.90;;;;;;5092956;28;20636;-67
2022/01/19 04:25:44;;;;;;;0.20;0.20;;;1.50;99.90;;;;;;5083675;28;20626;-68
2022/01/19 04:28:14;;;;;;;0.10;0.10;;;1.40;99.90;;;;;;5087067;28;20651;-68
2022/01/19 04:30:45;;;;;;;0.20;0.20;;;1.40;99.90;;;;;;5087681;28;20627;-68
2022/01/19 04:33:16;;;;;;;0.10;0.10;;;1.40;99.90;;;;;;5086721;28;20689;-67
2022/01/19 04:35:47;;;;;;;0.10;0.10;;;1.40;99.90;;;;;;5088365;28;20607;-67
2022/01/19 04:44:27;;;;;;;0.13;0.13;;;1.40;99.90;;;;;;5083527;28;20647;-67
2022/01/19 05:04:02;;;;;;;0.10;0.10;;;1.10;99.90;;;;;;5087425;28;20636;-68
2022/01/19 05:06:48;;;;;;;0.20;0.20;;;1.00;99.90;;;;;;5085440;28;20615;-68
2022/01/19 05:09:28;;;;;;;0.10;0.10;;;1.00;99.90;;;;;;5089456;28;20654;-68
2022/01/19 05:14:41;;;;;;;0.10;0.10;;;0.90;99.90;;;;;;5087731;28;20611;-66
2022/01/19 05:17:09;;;;;;;0.13;0.13;;;0.90;99.90;;;;;;5086771;28;20651;-67
2022/01/19 05:19:36;;;;;;;0.10;0.10;;;0.80;99.90;;;;;;5088651;28;20661;-67
2022/01/19 05:22:04;;;;;;;0.20;0.20;;;0.80;99.90;;;;;;5084204;28;20647;-67
2022/01/19 05:24:54;;;;;;;0.10;0.10;;;0.70;99.90;;;;;;5082946;28;20691;-67
2022/01/19 05:27:32;;;;;;;0.20;0.20;;;0.70;99.90;;;;;;5088780;28;20611;-67
2022/01/19 05:29:59;;;;;;;0.20;0.20;;;0.70;99.90;;;;;;5086572;28;20624;-66
2022/01/19 05:32:27;;;;;;;0.10;0.10;;;0.70;99.90;;;;;;5086247;28;20651;-67
2022/01/19 05:34:54;;;;;;;0.10;0.10;;;0.70;99.90;;;;;;5083866;28;20627;-68
2022/01/19 05:37:40;;;;;;;0.10;0.10;;;0.70;99.90;;;;;;5086996;28;20611;-67
2022/01/19 05:40:20;;;;;;;0.10;0.10;;;0.70;99.90;;;;;;5083908;28;21067;-66
2022/01/19 05:42:53;;;;;;;0.10;0.10;;;0.70;99.90;;;;;;5085612;28;20636;-67
2022/01/19 05:45:21;;;;;;;0.10;0.10;;;0.70;99.90;;;;;;5078998;28;20630;-68
2022/01/19 05:47:50;;;;;;;0.10;0.10;;;0.70;99.90;;;;;;5095724;28;20647;-68
2022/01/19 05:50:17;;;;;;;0.20;0.20;;;0.70;99.90;;;;;;5095080;28;20655;-68
2022/01/19 05:52:51;;;;;;;0.10;0.10;;;0.70;99.90;;;;;;5095934;28;20747;-68
2022/01/19 05:55:19;;;;;;;0.20;0.20;;;0.70;99.90;;;;;;5095614;28;20992;-68
2022/01/19 05:57:46;;;;;;;0.10;0.10;;;0.60;99.90;;;;;;5089246;28;21046;-68
2022/01/19 06:00:14;;;;;;;0.20;0.20;;;0.60;99.90;;;;;;5085553;28;20689;-68
2022/01/19 06:02:52;;;;;;;0.10;0.10;;;0.60;99.90;;;;;;5090302;28;20607;-69
2022/01/19 06:05:26;;;;;;;0.20;0.20;;;0.50;99.90;;;;;;5087067;28;20604;-67
2022/01/19 06:08:39;;;;;;;0.10;0.10;;;0.50;99.90;;;;;;5067624;28;20642;-68
2022/01/19 06:11:06;;;;;;;0.10;0.10;;;0.50;99.90;;;;;;5088341;28;21184;-69
2022/01/19 06:13:33;;;;;;;0.10;0.10;;;0.40;99.90;;;;;;5090653;28;20615;-69
2022/01/19 06:16:00;;;;;;;0.20;0.20;;;0.40;99.90;;;;;;5086275;28;20198;-69
2022/01/19 06:18:29;;;;;;;0.20;0.20;;;0.40;99.90;;;;;;5087128;28;20217;-68
2022/01/19 06:20:55;;;;;;;0.20;0.20;;;0.40;99.90;;;;;;5085074;28;21228;-68
2022/01/19 06:23:36;;;;;;;0.20;0.20;;;0.40;99.90;;;;;;5078765;28;20221;-67
2022/01/19 06:26:06;;;;;;;0.20;0.20;;;0.40;99.90;;;;;;5083452;28;20208;-69
2022/01/19 06:28:34;;;;;;;0.10;0.10;;;0.40;99.90;;;;;;5085048;28;20210;-71
2022/01/19 06:31:01;;;;;;;0.20;0.20;;;0.30;99.90;;;;;;5085283;28;20247;-69
2022/01/19 06:33:30;;;;;;;0.15;0.15;;;0.30;99.90;;;;;;5088879;28;20697;-70
2022/01/19 06:35:57;;;;;;;0.10;0.10;;;0.30;99.90;;;;;;5086488;28;20670;-68
2022/01/19 06:38:35;;;;;;;0.10;0.10;;;0.30;99.90;;;;;;5081317;28;20218;-69
2022/01/19 06:41:10;;;;;;;0.17;0.17;;;0.30;99.90;;;;;;5083873;28;20197;-67
2022/01/19 06:43:39;;;;;;;0.10;0.10;;;0.30;99.90;;;;;;5087544;28;20217;-67
2022/01/19 06:46:07;;;;;;;0.17;0.17;;;0.30;99.90;;;;;;5089831;28;20198;-65
2022/01/19 06:48:35;;;;;;;0.20;0.20;;;0.30;99.90;;;;;;5086809;28;20213;-66
2022/01/19 06:51:06;;;;;;;0.20;0.20;;;0.30;99.90;;;;;;5083252;28;20210;-67
2022/01/19 06:53:40;;;;;;;0.20;0.20;;;0.30;99.90;;;;;;5083742;28;20704;-67
2022/01/19 06:56:13;;;;;;;0.13;0.13;;;0.40;99.90;;;;;;5084274;28;20210;-67
2022/01/19 06:58:40;;;;;;;0.20;0.20;;;0.30;99.90;;;;;;5085008;28;20655;-66
2022/01/19 07:01:19;;;;;;;0.20;0.20;;;0.40;99.90;;;;;;5082631;22;20232;-75
2022/01/19 07:04:07;;;;;;;0.20;0.20;;;0.40;99.90;;;;;;5068710;28;20226;-74
2022/01/19 07:06:35;;;;;;;0.20;0.20;;;0.40;99.90;;;;;;5084971;28;20197;-75
2022/01/19 07:09:16;;;;;;;0.20;0.20;;;0.40;99.90;;;;;;5082025;28;20201;-75
2022/01/19 07:11:49;;;;;;;0.10;0.10;;;0.40;99.90;;;;;;5079681;28;20612;-75
2022/01/19 07:14:17;;;;;;;0.20;0.20;;;0.40;99.90;;;;;;5079149;28;20216;-75
2022/01/19 07:16:45;;;;;;;0.20;0.20;;;0.40;99.90;;;;;;5082427;28;20294;-75
2022/01/19 07:19:14;;;;;;;0.10;0.10;;;0.40;99.90;;;;;;5085278;28;20628;-75
2022/01/19 07:21:42;;;;;;;0.20;0.20;;;0.50;99.90;;;;;;5080414;28;20198;-75
2022/01/19 07:24:12;;;;;;;0.20;0.20;;;0.50;99.90;;;;;;5082335;28;20253;-75
2022/01/19 07:26:40;;;;;;;0.13;0.13;;;0.50;99.90;;;;;;5072998;28;20712;-75
2022/01/19 07:29:09;;;;;;;0.20;0.20;;;0.50;99.90;;;;;;5085005;28;20624;-75
2022/01/19 07:31:36;;;;;;;0.20;0.20;;;0.60;99.90;;;;;;5089198;28;20193;-75
2022/01/19 07:34:07;;;;;;;0.10;0.10;;;0.60;99.90;;;;;;5079653;28;20304;-75
2022/01/19 07:36:37;;;;;;;0.10;0.10;;;0.60;99.90;;;;;;5079927;28;20348;-75
2022/01/19 07:39:07;;;;;;;0.20;0.20;;;0.60;99.90;;;;;;5078289;28;20202;-75
2022/01/19 07:41:35;;;;;;;0.10;0.10;;;0.60;99.90;;;;;;5083749;28;20622;-75
2022/01/19 07:44:22;;;;;;;0.20;0.20;;;0.60;99.90;;;;;;5094066;28;20706;-76
2022/01/19 07:47:08;;;;;;;0.10;0.10;;;0.60;99.90;;;;;;5079811;28;20209;-75
2022/01/19 07:49:54;;;;;;;0.20;0.20;;;0.60;99.90;;;;;;5085656;28;20209;-76
2022/01/19 07:52:55;;;;;;;0.10;0.10;;;0.60;99.90;;;;;;5075175;28;21195;-76
2022/01/19 07:55:30;;;;;;;0.20;0.20;;;0.60;99.90;;;;;;5083224;28;20217;-76
2022/01/19 07:58:23;;;;;;;0.10;0.10;;;0.60;99.90;;;;;;5074115;28;20205;-76
2022/01/19 08:01:09;;;;;;;0.20;0.20;;;0.60;99.90;;;;;;5074167;28;20229;-76
2022/01/19 08:03:45;;;;;;;0.20;0.20;;;0.60;99.90;;;;;;5080631;28;20280;-76
2022/01/19 08:06:21;;;;;;;0.10;0.10;;;0.70;99.90;;;;;;5079790;28;20674;-76
2022/01/19 08:08:52;;;;;;;0.20;0.20;;;0.70;99.90;;;;;;5085378;28;20727;-75
2022/01/19 08:11:19;;;;;;;0.15;0.15;;;0.80;99.90;;;;;;5087351;28;20198;-76
2022/01/19 08:13:49;;;;;;;0.10;0.10;;;0.90;99.90;;;;;;5084447;28;20277;-75
2022/01/19 08:16:16;;;;;;;0.20;0.20;;;0.90;99.90;;;;;;5081510;28;20190;-76
2022/01/19 08:18:44;;;;;;;0.17;0.17;;;1.00;99.90;;;;;;5082940;28;20298;-75
2022/01/19 08:21:13;;;;;;;0.20;0.20;;;1.10;99.90;;;;;;5086605;28;20204;-75
2022/01/19 08:23:51;;;;;;;0.10;0.10;;;1.30;99.90;;;;;;5082442;28;20277;-74
2022/01/19 08:26:20;;;;;;;0.20;0.20;;;1.40;99.90;;;;;;5081306;28;20204;-75
2022/01/19 08:28:48;;;;;;;0.10;0.10;;;1.50;99.90;;;;;;5091113;28;20279;-76
2022/01/19 08:31:16;;;;;;;0.10;0.10;;;1.70;99.90;;;;;;5085024;28;20716;-75
2022/01/19 08:34:17;;;;;;;0.10;0.10;;;1.80;99.90;;;;;;5072019;28;20647;-75
2022/01/19 08:37:14;;;;;;;0.20;0.20;;;2.00;99.90;;;;;;5070668;28;20610;-75
2022/01/19 08:39:49;;;;;;;0.20;0.20;;;2.20;99.90;;;;;;5087331;28;20626;-75
2022/01/19 08:42:16;;;;;;;0.20;0.20;;;2.30;99.90;;;;;;5088489;28;20650;-75
2022/01/19 08:44:43;;;;;;;0.20;0.20;;;2.50;99.90;;;;;;5094763;28;20673;-75
2022/01/19 08:47:22;;;;;;;0.10;0.10;;;2.60;99.90;;;;;;5085737;28;20638;-75
2022/01/19 08:50:19;;;;;;;0.10;0.10;;;2.60;99.90;;;;;;5075103;28;20650;-75
2022/01/19 08:53:06;;;;;;;0.10;0.10;;;2.70;99.90;;;;;;5090348;28;20623;-75
2022/01/19 08:55:42;;;;;;;0.10;0.10;;;2.70;99.90;;;;;;5080587;28;20774;-75
2022/01/19 08:58:10;;;;;;;0.10;0.10;;;2.80;99.90;;;;;;5084620;28;20705;-75
2022/01/19 09:00:38;;;;;;;0.17;0.17;;;2.80;99.90;;;;;;5087803;28;20635;-75
2022/01/19 09:03:05;;;;;;;0.10;0.10;;;2.80;99.90;;;;;;5097743;28;20612;-75
2022/01/19 09:05:32;;;;;;;0.10;0.10;;;2.80;99.90;;;;;;5094202;28;20753;-75
2022/01/19 09:08:00;;;;;;;0.20;0.20;;;2.90;99.90;;;;;;5087517;28;20620;-75
2022/01/19 09:10:27;;;;;;;0.10;0.10;;;2.90;99.90;;;;;;5080510;28;20632;-75
2022/01/19 09:12:55;;;;;;;0.10;0.10;;;3.00;99.90;;;;;;5093643;28;20688;-75
2022/01/19 09:15:23;;;;;;;0.10;0.10;;;3.10;99.90;;;;;;5087485;28;20643;-75
2022/01/19 09:17:52;;;;;;;0.20;0.20;;;3.30;99.90;;;;;;5081920;28;20615;-75
2022/01/19 09:20:20;;;;;;;0.20;0.20;;;3.40;99.90;;;;;;5092257;28;20739;-75
2022/01/19 09:22:49;;;;;;;0.10;0.10;;;3.50;99.90;;;;;;5077394;28;20720;-75
2022/01/19 09:25:16;;;;;;;0.10;0.10;;;3.60;99.90;;;;;;5075967;28;20741;-75
2022/01/19 09:27:44;;;;;;;0.10;0.10;;;3.70;99.90;;;;;;5075220;28;20615;-75
2022/01/19 09:30:15;;;;;;;0.10;0.10;;;3.80;99.90;;;;;;5081414;28;20659;-75
2022/01/19 09:32:44;;;;;;;0.10;0.10;;;3.90;99.90;;;;;;5071471;28;20643;-75
2022/01/19 09:35:13;;;;;;;0.10;0.10;;;4.00;99.90;;;;;;5075565;28;20656;-75
2022/01/19 09:37:40;;;;;;;0.10;0.10;;;4.10;99.90;;;;;;5081213;28;20723;-75
2022/01/19 09:40:09;;;;;;;0.10;0.10;;;4.10;99.90;;;;;;5083824;28;20608;-75
2022/01/19 09:42:36;;;;;;;0.20;0.20;;;4.20;99.90;;;;;;5076817;28;20617;-75
2022/01/19 09:45:04;;;;;;;0.10;0.10;;;4.30;99.90;;;;;;5080321;28;20756;-75
2022/01/19 09:47:33;;;;;;;0.10;0.10;;;4.30;99.90;;;;;;5082373;28;20737;-75
2022/01/19 09:50:00;;;;;;;0.10;0.10;;;4.30;99.90;;;;;;5084187;28;20624;-75
2022/01/19 09:52:27;;;;;;;0.20;0.20;;;4.40;99.90;;;;;;5088812;28;20630;-75
2022/01/19 09:54:55;;;;;;;0.10;0.10;;;4.40;99.90;;;;;;5087508;28;20694;-75
2022/01/19 09:57:22;;;;;;;0.10;0.10;;;4.60;99.90;;;;;;5082254;28;21083;-75
2022/01/19 09:59:49;;;;;;;0.10;0.10;;;4.70;99.90;;;;;;5079244;28;20753;-75
2022/01/19 10:02:17;;;;;;;0.10;0.10;;;4.80;99.90;;;;;;5092690;28;20632;-75
2022/01/19 10:04:47;;;;;;;0.10;0.10;;;4.90;99.90;;;;;;5078079;28;20683;-75
2022/01/19 10:07:17;;;;;;;0.10;0.10;;;5.00;99.90;;;;;;5086886;28;20615;-75
2022/01/19 10:09:56;;;;;;;0.10;0.10;;;5.10;99.90;;;;;;5080273;28;20629;-75
2022/01/19 10:18:16;;;;;;;0.10;0.10;;;5.40;99.90;;;;;;5086771;28;20619;-76
2022/01/19 10:20:46;;;;;;;0.10;0.10;;;5.40;99.90;;;;;;5084219;28;20627;-75
2022/01/19 10:23:36;;;;;;;0.13;0.13;;;5.40;99.90;;;;;;5080960;28;20615;-75
2022/01/19 10:26:04;;;;;;;0.10;0.10;;;5.40;99.90;;;;;;5083402;28;21232;-75
2022/01/19 10:28:31;;;;;;;0.10;0.10;;;5.30;99.90;;;;;;5086609;28;20607;-75
2022/01/19 10:31:01;;;;;;;0.10;0.10;;;5.30;99.90;;;;;;5088009;28;20619;-75
2022/01/19 10:33:28;;;;;;;0.10;0.10;;;5.30;99.90;;;;;;5082744;28;21007;-75
2022/01/19 10:35:58;;;;;;;0.10;0.10;;;5.30;99.90;;;;;;5090554;28;20726;-75
2022/01/19 10:38:28;;;;;;;0.10;0.10;;;5.20;99.90;;;;;;5082129;28;20604;-75
2022/01/19 10:41:13;;;;;;;0.10;0.10;;;5.10;99.90;;;;;;5087853;28;20738;-75
2022/01/19 10:43:42;;;;;;;0.10;0.10;;;4.90;99.90;;;;;;5074051;28;21098;-75
2022/01/19 10:46:30;;;;;;;0.10;0.10;;;4.90;99.90;;;;;;5088837;28;20681;-75
2022/01/19 10:48:59;;;;;;;0.10;0.10;;;5.00;99.90;;;;;;5077687;28;20619;-75
2022/01/19 10:51:34;;;;;;;0.10;0.10;;;5.10;99.90;;;;;;5084588;28;20640;-75
2022/01/19 10:54:14;;;;;;;0.10;0.10;;;5.30;99.90;;;;;;5083932;28;20645;-75
2022/01/19 10:56:43;;;;;;;0.10;0.10;;;5.60;99.90;;;;;;5077981;28;20600;-75
2022/01/19 10:59:12;;;;;;;0.13;0.13;;;5.90;99.90;;;;;;5079607;28;20632;-76
2022/01/19 11:01:44;;;;;;;0.10;0.10;;;6.00;99.90;;;;;;5086531;28;20632;-75
2022/01/19 11:04:26;;;;;;;0.10;0.10;;;6.10;99.90;;;;;;5082991;28;20690;-75
2022/01/19 11:06:57;;;;;;;0.10;0.10;;;6.10;99.90;;;;;;5094278;28;21116;-75
2022/01/19 11:09:27;;;;;;;0.10;0.10;;;6.00;99.90;;;;;;5087679;28;20615;-75
2022/01/19 11:11:56;;;;;;;0.10;0.10;;;5.90;99.90;;;;;;5089866;28;20626;-75
2022/01/19 11:14:25;;;;;;;0.10;0.10;;;5.80;99.90;;;;;;5079919;28;20650;-75
2022/01/19 11:16:53;;;;;;;0.10;0.10;;;5.70;99.90;;;;;;5084020;28;20600;-75
2022/01/19 11:19:21;;;;;;;0.10;0.10;;;5.60;99.90;;;;;;5086563;28;20642;-75
2022/01/19 11:22:04;;;;;;;0.10;0.10;;;5.60;99.90;;;;;;5077241;28;20632;-75
2022/01/19 11:24:38;;;;;;;0.10;0.10;;;5.60;99.90;;;;;;5071794;28;20655;-75
2022/01/19 11:27:05;;;;;;;0.10;0.10;;;5.50;99.90;;;;;;5078329;28;20632;-75
2022/01/19 11:29:32;;;;;;;0.10;0.10;;;5.50;99.90;;;;;;5076648;28;20724;-75
2022/01/19 11:32:14;;;;;;;0.10;0.10;;;5.50;99.90;;;;;;5082112;28;20670;-75
2022/01/19 11:34:46;;;;;;;0.10;0.10;;;5.50;99.90;;;;;;5079176;28;21303;-74
2022/01/19 11:37:16;;;;;;;0.10;0.10;;;5.40;99.90;;;;;;5087227;28;20608;-75
2022/01/19 11:40:08;;;;;;;0.10;0.10;;;5.30;99.90;;;;;;5081230;28;20621;-75
2022/01/19 11:42:36;;;;;;;0.10;0.10;;;5.40;99.90;;;;;;5085298;28;20634;-75
2022/01/19 11:45:05;;;;;;;0.10;0.10;;;5.40;99.90;;;;;;5080766;28;20763;-75
2022/01/19 11:47:32;;;;;;;0.10;0.10;;;5.40;99.90;;;;;;5075909;28;20702;-75
2022/01/19 11:50:05;;;;;;;0.10;0.10;;;5.50;99.90;;;;;;5088675;28;20631;-75
2022/01/19 11:53:08;;;;;;;0.10;0.10;;;5.50;99.90;;;;;;5084085;28;20616;-75
2022/01/19 11:55:36;;;;;;;0.10;0.10;;;5.50;99.90;;;;;;5076827;28;20651;-74
2022/01/19 11:58:20;;;;;;;0.10;0.10;;;5.60;99.90;;;;;;5087893;28;20630;-75
2022/01/19 12:00:49;;;;;;;0.10;0.10;;;5.60;99.90;;;;;;5085890;28;20631;-75
2022/01/19 12:03:22;;;;;;;0.10;0.10;;;5.60;99.90;;;;;;5078197;28;20626;-75
2022/01/19 12:05:51;;;;;;;0.10;0.10;;;5.70;99.90;;;;;;5082096;28;20667;-75
2022/01/19 12:08:27;;;;;;;0.10;0.10;;;5.60;99.90;;;;;;5074325;28;20710;-75
2022/01/19 12:10:57;;;;;;;0.10;0.10;;;5.60;99.90;;;;;;5077373;28;20623;-75
2022/01/19 12:13:36;;;;;;;0.10;0.10;;;5.60;99.90;;;;;;5075286;28;20611;-75
2022/01/19 12:16:07;;;;;;;0.10;0.10;;;5.50;99.90;;;;;;5073464;28;20674;-75
2022/01/19 12:18:40;;;;;;;0.10;0.10;;;5.50;99.90;;;;;;5075653;28;20612;-75
2022/01/19 12:21:08;;;;;;;0.10;0.10;;;5.50;99.90;;;;;;5078127;28;20639;-75
2022/01/19 12:23:39;;;;;;;0.10;0.10;;;5.50;99.90;;;;;;5074886;28;20627;-75
2022/01/19 12:26:08;;;;;;;0.10;0.10;;;5.60;99.90;;;;;;5084752;28;20980;-76
2022/01/19 12:28:46;;;;;;;0.10;0.10;;;5.60;99.90;;;;;;5087926;28;20700;-75
2022/01/19 12:31:38;;;;;;;0.10;0.10;;;5.70;99.90;;;;;;5097789;28;21226;-73
2022/01/19 12:34:21;;;;;;;0.10;0.10;;;5.60;99.90;;;;;;5085086;28;20658;-74
2022/01/19 12:36:54;;;;;;;0.10;0.10;;;5.60;99.90;;;;;;5088713;28;20612;-73
2022/01/19 12:39:40;;;;;;;0.00;0.00;;;5.60;99.90;;;;;;5087455;28;20618;-74
2022/01/19 12:42:13;;;;;;;0.13;0.13;;;5.60;99.90;;;;;;5087889;28;21044;-74
2022/01/19 12:44:43;;;;;;;0.10;0.10;;;5.60;99.90;;;;;;5087799;28;20655;-73
2022/01/19 12:47:48;;;;;;;0.10;0.10;;;5.50;99.90;;;;;;5084922;28;20708;-74
2022/01/19 12:50:35;;;;;;;0.10;0.10;;;5.50;99.90;;;;;;5081517;28;20623;-75
2022/01/19 12:53:07;;;;;;;0.10;0.10;;;5.50;99.90;;;;;;5079773;28;21126;-74
2022/01/19 12:55:38;;;;;;;0.10;0.10;;;5.50;99.90;;;;;;5071563;28;20631;-73
2022/01/19 12:58:15;;;;;;;0.10;0.10;;;5.60;99.90;;;;;;5078074;28;20898;-74
2022/01/19 13:00:43;;;;;;;0.10;0.10;;;5.60;99.90;;;;;;5083847;28;20642;-73
2022/01/19 13:03:15;;;;;;;0.10;0.10;;;5.60;99.90;;;;;;5089446;28;20616;-74
2022/01/19 13:05:47;;;;;;;0.10;0.10;;;5.60;99.90;;;;;;5087274;28;20667;-73
2022/01/19 13:08:27;;;;;;;0.10;0.10;;;5.60;99.90;;;;;;5078196;28;20632;-74
2022/01/19 13:11:03;;;;;;;0.00;0.00;;;5.60;99.90;;;;;;5082689;28;20977;-74
2022/01/19 13:13:31;;;;;;;0.10;0.10;;;5.60;99.90;;;;;;5083867;28;20621;-74
2022/01/19 13:16:00;;;;;;;0.10;0.10;;;5.70;99.90;;;;;;5089819;28;20658;-74
2022/01/19 13:18:33;;;;;;;0.10;0.10;;;5.70;99.90;;;;;;5086993;28;20647;-73
2022/01/19 13:21:03;;;;;;;0.10;0.10;;;5.70;99.90;;;;;;5082766;28;20628;-73
2022/01/19 13:23:32;;;;;;;0.10;0.10;;;5.70;99.90;;;;;;5077498;28;20630;-73
2022/01/19 13:26:04;;;;;;;0.10;0.10;;;5.80;99.90;;;;;;5083095;28;20768;-74
2022/01/19 13:28:34;;;;;;;0.10;0.10;;;5.80;99.90;;;;;;5085849;28;20642;-73
2022/01/19 13:31:11;;;;;;;0.10;0.10;;;5.80;99.90;;;;;;5082830;28;20675;-74
2022/01/19 13:33:40;;;;;;;0.10;0.10;;;5.80;99.90;;;;;;5080094;28;20617;-72
2022/01/19 13:36:08;;;;;;;0.10;0.10;;;5.80;99.90;;;;;;5077707;28;20709;-74
2022/01/19 13:38:37;;;;;;;0.10;0.10;;;5.80;99.90;;;;;;5083448;28;20624;-74
2022/01/19 13:41:07;;;;;;;0.10;0.10;;;5.70;99.90;;;;;;5083375;28;20710;-73
2022/01/19 13:43:36;;;;;;;0.20;0.20;;;5.70;99.90;;;;;;5075949;28;20719;-73
2022/01/19 13:46:13;;;;;;;0.10;0.10;;;5.70;99.90;;;;;;5084250;28;20659;-72
2022/01/19 13:48:41;;;;;;;0.10;0.10;;;5.60;99.90;;;;;;5075561;28;20622;-74
2022/01/19 13:51:10;;;;;;;0.10;0.10;;;5.60;99.90;;;;;;5081976;28;20639;-74
2022/01/19 13:53:39;;;;;;;0.10;0.10;;;5.60;99.90;;;;;;5081319;28;21215;-73
2022/01/19 13:56:10;;;;;;;0.10;0.10;;;5.60;99.90;;;;;;5083787;28;20664;-74
2022/01/19 13:58:41;;;;;;;0.10;0.10;;;5.60;99.90;;;;;;5079693;28;20632;-74
2022/01/19 14:01:13;;;;;;;0.10;0.10;;;5.50;99.90;;;;;;5076193;28;20630;-74
2022/01/19 14:03:50;;;;;;;0.10;0.10;;;5.50;99.90;;;;;;5077841;28;20599;-74
2022/01/19 14:06:22;;;;;;;0.10;0.10;;;5.50;99.90;;;;;;5078868;28;20646;-73
2022/01/19 14:08:49;;;;;;;0.10;0.10;;;5.40;99.90;;;;;;5072456;28;20624;-74
2022/01/19 14:11:24;;;;;;;0.10;0.10;;;5.30;99.90;;;;;;5077272;28;20627;-73
2022/01/19 14:13:59;;;;;;;0.10;0.10;;;5.30;99.90;;;;;;5071190;28;20627;-73
2022/01/19 14:16:28;;;;;;;0.10;0.10;;;5.30;99.90;;;;;;5071929;28;20632;-73
2022/01/19 14:19:17;;;;;;;0.10;0.10;;;5.20;99.90;;;;;;5067761;28;20635;-73
2022/01/19 14:22:00;;;;;;;0.10;0.10;;;5.20;99.90;;;;;;5080113;28;20627;-74
2022/01/19 14:24:30;;;;;;;0.10;0.10;;;5.20;99.90;;;;;;5073733;28;20656;-73
2022/01/19 14:26:59;;;;;;;0.10;0.10;;;5.10;99.90;;;;;;5077272;28;20664;-74
2022/01/19 14:29:27;;;;;;;0.10;0.10;;;5.10;99.90;;;;;;5074964;28;20707;-74
2022/01/19 14:31:56;;;;;;;0.10;0.10;;;5.10;99.90;;;;;;5073855;28;20613;-73
2022/01/19 14:34:37;;;;;;;0.10;0.10;;;5.10;99.90;;;;;;5070711;28;20728;-74
2022/01/19 14:37:12;;;;;;;0.10;0.10;;;5.10;99.90;;;;;;5074938;28;20635;-73
2022/01/19 14:39:51;;;;;;;0.10;0.10;;;5.10;99.90;;;;;;5070076;28;20600;-74